createdAt,value
2022-10-29T00:44:59.319Z,102376.88
2022-10-29T00:47:36.329Z,102364.59
2022-10-29T00:50:08.399Z,102367.81
2022-10-29T00:52:41.090Z,102359.53
2022-10-29T00:55:10.413Z,102360.09
2022-10-29T00:57:40.739Z,102352.84
2022-10-29T01:00:08.193Z,102349.91
2022-10-29T01:02:36.166Z,102351.81
2022-10-29T01:05:04.481Z,102351.28
2022-10-29T01:07:31.127Z,102353.94
2022-10-29T01:09:58.056Z,102361.16
2022-10-29T01:13:07.394Z,102361.69
2022-10-29T01:15:53.889Z,102346.47
2022-10-29T01:18:24.958Z,102348.84
2022-10-29T01:21:14.541Z,102342.19
2022-10-29T01:24:43.227Z,102343.25
2022-10-29T01:27:49.861Z,102346.47
2022-10-29T01:30:26.372Z,102349.66
2022-10-29T01:33:12.501Z,102338.47
2022-10-29T01:36:11.950Z,102330.97
2022-10-29T01:39:01.883Z,102324.03
2022-10-29T01:41:55.067Z,102319.22
2022-10-29T01:47:44.590Z,102323.75
2022-10-29T01:50:17.110Z,102314.38
2022-10-29T01:52:44.800Z,102311.19
2022-10-29T01:55:15.211Z,102301.31
2022-10-29T01:57:42.158Z,102311.47
2022-10-29T02:00:19.949Z,102306.63
2022-10-29T02:03:04.943Z,102300.75
2022-10-29T02:05:37.296Z,102299.97
2022-10-29T02:08:03.832Z,102299.97
2022-10-29T02:10:44.827Z,102301.31
2022-10-29T02:13:15.253Z,102300.78
2022-10-29T02:15:48.896Z,102296.78
2022-10-29T02:18:16.454Z,102292.50
2022-10-29T02:20:45.804Z,102294.09
2022-10-29T02:23:13.172Z,102296.22
2022-10-29T02:25:39.734Z,102295.44
2022-10-29T02:28:06.743Z,102301.03
2022-10-29T02:30:33.637Z,102302.38
2022-10-29T02:33:00.419Z,102303.16
2022-10-29T02:35:27.310Z,102309.31
2022-10-29T02:37:53.922Z,102308.50
2022-10-29T02:40:20.496Z,102309.31
2022-10-29T02:42:47.069Z,102308.50
2022-10-29T02:45:13.559Z,102301.56
2022-10-29T02:47:40.043Z,102296.50
2022-10-29T02:50:07.453Z,102288.75
2022-10-29T02:52:34.012Z,102274.06
2022-10-29T02:55:00.550Z,102262.03
2022-10-29T02:57:27.469Z,102264.47
2022-10-29T02:59:54.021Z,102268.47
2022-10-29T03:02:20.688Z,102272.47
2022-10-29T03:04:47.392Z,102272.22
2022-10-29T03:07:14.017Z,102259.66
2022-10-29T03:09:40.533Z,102262.03
2022-10-29T03:12:07.511Z,102259.09
2022-10-29T03:14:34.364Z,102256.97
2022-10-29T03:17:00.945Z,102256.97
2022-10-29T03:19:27.457Z,102257.75
2022-10-29T03:21:53.953Z,102253.25
2022-10-29T03:24:20.466Z,102246.28
2022-10-29T03:26:47.012Z,102253.75
2022-10-29T03:29:13.590Z,102260.44
2022-10-29T03:31:40.410Z,102267.91
2022-10-29T03:34:07.117Z,102268.47
2022-10-29T03:36:33.776Z,102270.06
2022-10-29T03:39:00.448Z,102270.59
2022-10-29T03:41:27.168Z,102274.34
2022-10-29T03:46:25.814Z,102278.59
2022-10-29T03:48:52.338Z,102281.53
2022-10-29T03:51:19.042Z,102283.13
2022-10-29T03:53:45.957Z,102274.06
2022-10-29T03:56:12.648Z,102271.13
2022-10-29T03:58:39.235Z,102266.84
2022-10-29T04:01:08.212Z,102266.84
2022-10-29T04:03:37.218Z,102260.72
2022-10-29T04:06:11.980Z,102260.19
2022-10-29T04:08:39.144Z,102262.84
2022-10-29T04:11:06.280Z,102263.91
2022-10-29T04:13:32.871Z,102258.56
2022-10-29T04:15:59.619Z,102258.03
2022-10-29T04:18:26.096Z,102253.53
2022-10-29T04:38:36.580Z,102240.41
2022-10-29T04:41:04.252Z,102239.09
2022-10-29T04:43:31.120Z,102237.22
2022-10-29T04:45:59.539Z,102241.75
2022-10-29T04:48:27.749Z,102242.00
2022-10-29T04:50:54.347Z,102243.09
2022-10-29T04:53:21.391Z,102235.34
2022-10-29T04:55:48.378Z,102236.13
2022-10-29T04:58:17.598Z,102231.63
2022-10-29T05:00:45.142Z,102230.00
2022-10-29T05:03:12.602Z,102223.88
2022-10-29T05:05:40.136Z,102225.75
2022-10-29T05:08:07.493Z,102221.47
2022-10-29T05:10:36.058Z,102223.34
2022-10-29T05:13:07.983Z,102222.53
2022-10-29T05:15:35.135Z,102227.88
2022-10-29T05:18:02.238Z,102216.38
2022-10-29T05:20:29.764Z,102217.22
2022-10-29T05:23:08.003Z,102211.59
2022-10-29T05:25:38.216Z,102197.44
2022-10-29T05:28:13.623Z,102197.19
2022-10-29T05:30:41.747Z,102195.31
2022-10-29T05:33:14.325Z,102200.41
2022-10-29T05:35:40.938Z,102203.06
2022-10-29T05:38:09.081Z,102201.97
2022-10-29T05:40:35.657Z,102195.59
2022-10-29T05:43:03.418Z,102201.72
2022-10-29T05:45:29.932Z,102204.91
2022-10-29T05:47:57.947Z,102198.00
2022-10-29T05:50:25.459Z,102198.78
2022-10-29T05:53:06.489Z,102198.53
2022-10-29T05:55:34.943Z,102199.88
2022-10-29T05:58:13.022Z,102197.19
2022-10-29T06:00:42.388Z,102196.09
2022-10-29T06:03:15.727Z,102194.25
2022-10-29T06:05:42.980Z,102197.72
2022-10-29T06:08:09.849Z,102189.72
2022-10-29T06:10:36.883Z,102187.59
2022-10-29T06:13:10.401Z,102185.44
2022-10-29T06:15:37.036Z,102194.25
2022-10-29T06:18:06.017Z,102190.50
2022-10-29T06:20:32.671Z,102197.44
2022-10-29T06:22:59.547Z,102199.03
2022-10-29T06:25:27.298Z,102195.56
2022-10-29T06:28:05.808Z,102191.84
2022-10-29T06:30:34.324Z,102192.38
2022-10-29T06:33:01.470Z,102193.97
2022-10-29T06:35:28.915Z,102185.16
2022-10-29T06:37:56.266Z,102185.94
2022-10-29T06:40:23.308Z,102185.66
2022-10-29T06:42:49.870Z,102192.59
2022-10-29T06:45:16.767Z,102187.50
2022-10-29T06:47:44.851Z,102193.16
2022-10-29T06:50:13.617Z,102181.06
2022-10-29T06:52:40.364Z,102183.97
2022-10-29T06:55:07.719Z,102177.28
2022-10-29T06:57:34.314Z,102170.31
2022-10-29T07:00:05.565Z,102167.34
2022-10-29T07:02:35.182Z,102161.41
2022-10-29T07:05:03.491Z,102154.97
2022-10-29T07:07:30.082Z,102165.88
2022-10-29T07:09:56.772Z,102157.28
2022-10-29T07:12:23.401Z,102161.53
2022-10-29T07:14:50.042Z,102155.59
2022-10-29T07:17:16.554Z,102158.22
2022-10-29T07:19:43.114Z,102167.25
2022-10-29T07:22:09.884Z,102166.66
2022-10-29T07:24:38.605Z,102167.13
2022-10-29T07:27:08.080Z,102163.34
2022-10-29T07:29:35.303Z,102172.69
2022-10-29T07:32:01.873Z,102167.78
2022-10-29T07:34:28.450Z,102173.63
2022-10-29T07:36:55.090Z,102177.03
2022-10-29T07:39:22.787Z,102173.25
2022-10-29T07:41:50.237Z,102159.81
2022-10-29T07:44:22.481Z,102154.91
2022-10-29T07:46:49.472Z,102161.03
2022-10-29T07:49:16.012Z,102159.88
2022-10-29T07:51:42.649Z,102164.09
2022-10-29T07:54:13.715Z,102168.59
2022-10-29T07:56:43.802Z,102172.84
2022-10-29T07:59:18.146Z,102168.22
2022-10-29T08:01:45.179Z,102167.06
2022-10-29T08:04:13.889Z,102162.94
2022-10-29T08:06:40.970Z,102157.53
2022-10-29T08:09:07.741Z,102159.59
2022-10-29T08:11:34.453Z,102153.59
2022-10-29T08:14:01.056Z,102157.00
2022-10-29T08:16:27.816Z,102156.13
2022-10-29T08:18:54.658Z,102143.44
2022-10-29T08:21:23.335Z,102141.50
2022-10-29T08:23:50.629Z,102137.66
2022-10-29T08:26:17.575Z,102136.50
2022-10-29T08:28:47.974Z,102137.22
2022-10-29T08:31:16.147Z,102138.72
2022-10-29T08:33:42.901Z,102136.75
2022-10-29T08:36:09.739Z,102138.28
2022-10-29T08:38:36.404Z,102148.94
2022-10-29T08:41:20.078Z,102144.28
2022-10-29T08:43:55.824Z,102144.41
2022-10-29T08:46:38.467Z,102142.94
2022-10-29T08:49:11.712Z,102142.25
2022-10-29T08:51:41.184Z,102137.31
2022-10-29T08:57:09.011Z,102123.84
2022-10-29T08:59:41.377Z,102131.38
2022-10-29T09:02:15.991Z,102139.25
2022-10-29T09:04:45.637Z,102145.06
2022-10-29T09:07:33.479Z,102147.81
2022-10-29T09:10:02.677Z,102146.00
2022-10-29T09:13:08.788Z,102152.31
2022-10-29T09:15:56.354Z,102151.38
2022-10-29T09:18:51.861Z,102158.25
2022-10-29T09:21:38.319Z,102153.09
2022-10-29T09:24:25.030Z,102146.00
2022-10-29T09:26:57.774Z,102142.69
2022-10-29T09:29:48.595Z,102134.53
2022-10-29T09:32:27.265Z,102133.13
2022-10-29T09:35:14.816Z,102116.06
2022-10-29T09:37:56.253Z,102109.28
2022-10-29T09:40:36.133Z,102106.50
2022-10-29T09:43:34.258Z,102106.38
2022-10-29T09:46:05.918Z,102106.56
2022-10-29T09:48:47.861Z,102102.47
2022-10-29T09:51:31.129Z,102098.06
2022-10-29T09:53:57.962Z,102092.09
2022-10-29T09:56:25.252Z,102094.94
2022-10-29T09:59:09.689Z,102088.16
2022-10-29T10:01:45.822Z,102086.75
2022-10-29T10:04:40.948Z,102068.56
2022-10-29T10:07:10.103Z,102054.03
2022-10-29T10:10:00.034Z,102047.69
2022-10-29T10:12:42.580Z,102057.06
2022-10-29T10:15:38.696Z,102064.22
2022-10-29T10:18:18.123Z,102053.13
2022-10-29T10:20:59.450Z,102062.19
2022-10-29T10:23:33.086Z,102069.66
2022-10-29T10:26:03.976Z,102081.69
2022-10-29T10:28:39.268Z,102074.59
2022-10-29T10:31:17.881Z,102083.63
2022-10-29T10:33:49.854Z,102079.72
2022-10-29T10:36:18.412Z,102066.44
2022-10-29T10:38:52.235Z,102072.44
2022-10-29T10:41:27.363Z,102055.03
2022-10-29T10:44:00.618Z,102056.00
2022-10-29T10:46:33.752Z,102052.69
2022-10-29T10:49:14.528Z,102057.97
2022-10-29T10:51:56.198Z,102053.72
2022-10-29T10:54:47.039Z,102052.47
2022-10-29T10:57:13.761Z,102054.84
2022-10-29T10:59:54.388Z,102037.25
2022-10-29T11:02:34.476Z,102034.88
2022-10-29T11:05:09.617Z,102039.19
2022-10-29T11:07:41.672Z,102021.25
2022-10-29T11:10:16.501Z,102022.34
2022-10-29T11:12:57.215Z,102016.66
2022-10-29T11:15:41.110Z,102014.91
2022-10-29T11:18:36.492Z,102028.09
2022-10-29T11:21:18.216Z,102036.81
2022-10-29T11:24:09.426Z,102033.19
2022-10-29T11:26:42.754Z,102031.44
2022-10-29T11:29:09.260Z,102034.25
2022-10-29T11:31:58.554Z,102022.53
2022-10-29T11:34:30.341Z,102031.25
2022-10-29T11:37:06.556Z,102032.69
2022-10-29T11:39:51.028Z,102023.66
2022-10-29T11:42:17.955Z,102019.50
2022-10-29T11:44:44.978Z,102007.31
2022-10-29T11:47:11.796Z,102005.56
2022-10-29T11:50:03.566Z,102003.81
2022-10-29T11:52:49.796Z,102002.06
2022-10-29T11:55:43.913Z,101994.25
2022-10-29T11:58:34.272Z,101993.94
2022-10-29T12:01:25.269Z,101987.25
2022-10-29T12:04:19.517Z,101978.97
2022-10-29T12:07:08.248Z,101981.97
2022-10-29T12:09:42.324Z,101981.94
2022-10-29T12:12:24.044Z,101970.63
2022-10-29T12:15:13.223Z,101967.44
2022-10-29T12:17:52.835Z,101970.41
2022-10-29T12:20:37.763Z,101973.06
2022-10-29T12:23:25.501Z,101970.31
2022-10-29T12:25:55.905Z,101959.66
2022-10-29T12:28:47.504Z,101962.00
2022-10-29T12:31:35.419Z,101958.97
2022-10-29T12:34:08.140Z,101962.25
2022-10-29T12:36:35.196Z,101965.69
2022-10-29T12:39:03.011Z,101961.22
2022-10-29T12:41:39.567Z,101957.97
2022-10-29T12:55:20.487Z,101948.38
2022-10-29T12:57:47.107Z,101944.91
2022-10-29T13:00:25.660Z,101941.88
2022-10-29T13:02:54.052Z,101937.13
2022-10-29T13:05:39.547Z,101932.53
2022-10-29T13:08:07.704Z,101926.97
2022-10-29T13:10:34.297Z,101922.34
2022-10-29T13:13:17.769Z,101921.09
2022-10-29T13:16:14.780Z,101921.88
2022-10-29T13:19:06.592Z,101923.53
2022-10-29T13:21:58.266Z,101922.28
2022-10-29T13:24:26.350Z,101922.16
2022-10-29T13:27:00.763Z,101920.59
2022-10-29T13:30:11.800Z,101912.94
2022-10-29T13:32:40.852Z,101905.94
2022-10-29T13:35:19.559Z,101904.03
2022-10-29T13:37:54.263Z,101901.66
2022-10-29T13:40:32.561Z,101898.16
2022-10-29T13:43:08.325Z,101895.13
2022-10-29T13:45:40.010Z,101888.47
2022-10-29T13:48:17.478Z,101901.66
2022-10-29T13:50:49.955Z,101890.84
2022-10-29T13:53:23.401Z,101891.63
2022-10-29T14:18:10.899Z,101874.31
2022-10-29T14:20:37.607Z,101873.47
2022-10-29T14:23:10.047Z,101871.59
2022-10-29T14:25:37.067Z,101875.41
2022-10-29T14:28:19.292Z,101867.75
2022-10-29T14:30:47.179Z,101873.47
2022-10-29T14:33:23.005Z,101877.78
2022-10-29T14:35:49.900Z,101873.47
2022-10-29T14:38:17.585Z,101874.31
2022-10-29T14:40:45.449Z,101871.91
2022-10-29T14:43:24.174Z,101874.63
2022-10-29T14:45:51.183Z,101872.69
2022-10-29T14:48:18.950Z,101874.31
2022-10-29T14:50:49.720Z,101870.78
2022-10-29T14:53:25.337Z,101879.34
2022-10-29T14:55:52.055Z,101872.06
2022-10-29T14:58:27.293Z,101864.72
2022-10-29T15:00:59.540Z,101857.41
2022-10-29T15:03:31.583Z,101860.78
2022-10-29T15:06:21.488Z,101867.75
2022-10-29T15:09:03.888Z,101866.97
2022-10-29T15:11:42.305Z,101866.19
2022-10-29T15:14:30.260Z,101859.19
2022-10-29T15:16:57.710Z,101862.56
2022-10-29T15:19:24.758Z,101859.06
2022-10-29T15:21:51.356Z,101864.03
2022-10-29T15:24:22.623Z,101851.63
2022-10-29T15:26:55.178Z,101856.25
2022-10-29T15:29:34.065Z,101850.06
2022-10-29T15:32:02.215Z,101846.06
2022-10-29T15:34:33.814Z,101848.78
2022-10-29T15:37:14.271Z,101847.22
2022-10-29T15:40:02.505Z,101836.41
2022-10-29T15:42:34.206Z,101828.16
2022-10-29T15:45:06.969Z,101822.16
2022-10-29T15:47:36.127Z,101819.00
2022-10-29T15:50:03.850Z,101822.06
2022-10-29T15:52:53.996Z,101823.47
2022-10-29T15:55:31.037Z,101826.53
2022-10-29T15:58:05.281Z,101821.47
2022-10-29T16:00:32.889Z,101817.84
2022-10-29T16:03:12.454Z,101816.28
2022-10-29T16:05:39.408Z,101805.00
2022-10-29T16:08:06.275Z,101803.41
2022-10-29T16:10:33.086Z,101803.72
2022-10-29T16:13:00.102Z,101803.28
2022-10-29T16:17:53.559Z,101796.91
2022-10-29T16:20:20.248Z,101784.06
2022-10-29T16:22:48.994Z,101783.63
2022-10-29T16:25:21.283Z,101774.59
2022-10-29T16:27:48.031Z,101783.81
2022-10-29T16:30:15.009Z,101775.25
2022-10-29T16:32:42.419Z,101768.91
2022-10-29T16:35:14.562Z,101771.50
2022-10-29T16:37:41.303Z,101767.22
2022-10-29T16:40:08.462Z,101771.38
2022-10-29T16:42:36.356Z,101768.53
2022-10-29T16:45:03.580Z,101759.97
2022-10-29T16:47:30.178Z,101764.91
2022-10-29T16:49:56.734Z,101767.16
2022-10-29T16:52:25.286Z,101755.09
2022-10-29T16:54:54.352Z,101761.97
2022-10-29T16:57:20.959Z,101760.34
2022-10-29T16:59:47.462Z,101760.25
2022-10-29T17:02:16.603Z,101758.66
2022-10-29T17:04:43.187Z,101757.09
2022-10-29T17:07:10.016Z,101756.94
2022-10-29T17:09:37.139Z,101760.75
2022-10-29T17:12:03.957Z,101767.28
2022-10-29T17:14:30.674Z,101768.06
2022-10-29T17:16:57.378Z,101762.53
2022-10-29T17:19:24.217Z,101771.28
2022-10-29T17:21:51.105Z,101771.59
2022-10-29T17:24:17.718Z,101769.25
2022-10-29T17:26:44.382Z,101763.03
2022-10-29T17:29:11.175Z,101768.44
2022-10-29T17:31:37.700Z,101770.34
2022-10-29T17:34:04.256Z,101773.38
2022-10-29T17:36:30.840Z,101778.78
2022-10-29T17:38:57.511Z,101786.75
2022-10-29T17:41:24.047Z,101778.97
2022-10-29T17:43:50.508Z,101773.13
2022-10-29T17:46:18.058Z,101770.41
2022-10-29T17:48:44.520Z,101772.66
2022-10-29T17:51:11.215Z,101770.28
2022-10-29T17:53:39.149Z,101786.78
2022-10-29T17:56:06.117Z,101783.63
2022-10-29T17:58:32.954Z,101785.06
2022-10-29T18:01:04.726Z,101783.81
2022-10-29T18:03:31.388Z,101778.41
2022-10-29T18:06:01.912Z,101779.06
2022-10-29T18:08:29.341Z,101788.56
2022-10-29T18:11:16.560Z,101798.91
2022-10-29T18:13:45.031Z,101804.63
2022-10-29T18:16:13.910Z,101809.22
2022-10-29T18:18:54.484Z,101814.97
2022-10-29T18:21:28.499Z,101809.09
2022-10-29T18:23:54.958Z,101809.72
2022-10-29T18:26:21.376Z,101810.50
2022-10-29T18:28:47.923Z,101811.63
2022-10-29T18:31:14.599Z,101801.47
2022-10-29T18:33:41.542Z,101806.09
2022-10-29T18:36:08.372Z,101803.25
2022-10-29T18:38:34.886Z,101804.06
2022-10-29T18:41:01.511Z,101808.97
2022-10-29T18:43:28.059Z,101812.00
2022-10-29T18:45:58.968Z,101809.59
2022-10-29T18:48:27.035Z,101816.75
2022-10-29T18:51:02.661Z,101807.09
2022-10-29T18:53:29.143Z,101812.97
2022-10-29T18:55:55.776Z,101814.06
2022-10-29T18:58:22.423Z,101805.81
2022-10-29T19:00:49.677Z,101809.97
2022-10-29T19:03:16.745Z,101809.84
2022-10-29T19:05:44.387Z,101796.97
2022-10-29T19:08:13.075Z,101792.72
2022-10-29T19:10:41.815Z,101790.03
2022-10-29T19:13:08.758Z,101786.03
2022-10-29T19:15:37.033Z,101781.78
2022-10-29T19:18:04.499Z,101786.22
2022-10-29T19:20:35.153Z,101787.31
2022-10-29T19:23:02.555Z,101790.69
2022-10-29T19:25:29.469Z,101788.59
2022-10-29T19:27:56.016Z,101794.66
2022-10-29T19:30:22.610Z,101802.91
2022-10-29T19:32:49.172Z,101806.41
2022-10-29T19:35:15.691Z,101796.72
2022-10-29T19:37:42.246Z,101803.72
2022-10-29T19:40:09.196Z,101807.50
2022-10-29T19:42:35.768Z,101807.50
2022-10-29T19:45:02.322Z,101805.94
2022-10-29T19:47:28.829Z,101812.09
2022-10-29T19:49:55.390Z,101812.41
2022-10-29T19:52:21.858Z,101802.44
2022-10-29T19:54:48.397Z,101799.75
2022-10-29T19:57:15.009Z,101805.16
2022-10-29T19:59:41.694Z,101808.16
2022-10-29T20:02:10.368Z,101811.94
2022-10-29T20:04:36.923Z,101818.00
2022-10-29T20:07:03.584Z,101818.13
2022-10-29T20:09:30.545Z,101825.13
2022-10-29T20:11:57.153Z,101814.50
2022-10-29T20:14:28.739Z,101816.88
2022-10-29T20:16:55.711Z,101825.44
2022-10-29T20:19:22.379Z,101821.94
2022-10-29T20:21:48.930Z,101826.19
2022-10-29T20:24:15.552Z,101823.50
2022-10-29T20:26:46.745Z,101823.19
2022-10-29T20:29:15.435Z,101823.97
2022-10-29T20:31:42.784Z,101823.13
2022-10-29T20:34:10.070Z,101823.28
2022-10-29T20:36:39.206Z,101819.94
2022-10-29T20:39:07.207Z,101825.47
2022-10-29T20:41:33.715Z,101822.63
2022-10-29T20:44:01.413Z,101822.44
2022-10-29T20:46:28.381Z,101829.56
2022-10-29T20:48:55.138Z,101827.78
2022-10-29T20:51:23.070Z,101826.81
2022-10-29T20:53:50.314Z,101835.50
2022-10-29T20:56:17.845Z,101826.47
2022-10-29T20:58:44.556Z,101834.06
2022-10-29T21:01:13.689Z,101830.41
2022-10-29T21:03:40.870Z,101828.31
2022-10-29T21:06:15.583Z,101837.00
2022-10-29T21:08:43.597Z,101839.53
2022-10-29T21:11:11.773Z,101831.28
2022-10-29T21:13:38.435Z,101839.19
2022-10-29T21:16:11.018Z,101840.28
2022-10-29T21:18:39.754Z,101839.59
2022-10-29T21:21:07.301Z,101840.53
2022-10-29T21:23:34.555Z,101846.53
2022-10-29T21:26:01.181Z,101849.03
2022-10-29T21:28:27.785Z,101846.97
2022-10-29T21:30:54.253Z,101858.31
2022-10-29T21:33:20.814Z,101859.25
2022-10-29T21:35:53.855Z,101854.78
2022-10-29T21:38:21.724Z,101851.63
2022-10-29T21:40:48.628Z,101850.63
2022-10-29T21:43:16.009Z,101846.19
2022-10-29T21:45:43.831Z,101856.75
2022-10-29T21:48:11.289Z,101850.38
2022-10-29T21:50:38.670Z,101844.81
2022-10-29T21:53:06.359Z,101844.97
2022-10-29T21:55:33.705Z,101857.41
2022-10-29T21:58:00.941Z,101856.91
2022-10-29T22:00:28.089Z,101862.06
2022-10-29T22:02:55.796Z,101852.72
2022-10-29T22:05:24.474Z,101866.44
2022-10-29T22:07:51.041Z,101862.78
2022-10-29T22:10:17.793Z,101864.47
2022-10-29T22:12:44.380Z,101862.41
2022-10-29T22:15:11.807Z,101865.69
2022-10-29T22:17:38.249Z,101863.28
2022-10-29T22:20:05.554Z,101872.25
2022-10-29T22:22:32.129Z,101873.94
2022-10-29T22:24:58.767Z,101866.03
2022-10-29T22:27:25.353Z,101869.78
2022-10-29T22:29:54.384Z,101866.59
2022-10-29T22:32:21.448Z,101862.63
2022-10-29T22:34:47.879Z,101867.50
2022-10-29T22:37:14.325Z,101863.53
2022-10-29T22:39:40.749Z,101871.88
2022-10-29T22:42:07.254Z,101875.47
2022-10-29T22:44:33.736Z,101869.41
2022-10-29T22:47:00.415Z,101874.56
2022-10-29T22:49:26.875Z,101874.41
2022-10-29T22:51:57.222Z,101880.34
2022-10-29T22:54:26.990Z,101881.13
2022-10-29T22:56:53.474Z,101881.44
2022-10-29T22:59:19.905Z,101883.31
2022-10-29T23:01:46.555Z,101880.94
2022-10-29T23:04:13.295Z,101880.44
2022-10-29T23:06:39.842Z,101875.66
2022-10-29T23:09:07.545Z,101882.44
2022-10-29T23:11:38.953Z,101882.22
2022-10-29T23:14:05.842Z,101890.09
2022-10-29T23:16:34.281Z,101893.13
2022-10-29T23:19:03.571Z,101893.44
2022-10-29T23:21:30.167Z,101885.47
2022-10-29T23:23:57.272Z,101881.22
2022-10-29T23:26:25.075Z,101894.13
2022-10-29T23:28:52.036Z,101887.47
2022-10-29T23:31:20.864Z,101891.81
2022-10-29T23:33:49.969Z,101891.59
2022-10-29T23:36:17.919Z,101882.84
2022-10-29T23:38:44.614Z,101893.84
2022-10-29T23:41:11.580Z,101889.66
2022-10-29T23:43:38.424Z,101887.09
2022-10-29T23:46:09.759Z,101890.84
2022-10-29T23:48:36.572Z,101889.81
2022-10-29T23:51:03.251Z,101895.00
2022-10-29T23:53:29.980Z,101898.25
2022-10-29T23:55:56.493Z,101896.16
2022-10-29T23:58:23.300Z,101891.38
